Time;durP1;ratioP1;P1;durP2;ratioP2;P2;SDS_P1;SDS_P2;PMS_P1;PMS_P2;Temp;Humidity;BMP_temperature;BMP_pressure;BME280_temperature;BME280_humidity;BME280_pressure;Samples;Min_cycle;Max_cycle;Signal;HPM_P1;HPM_P2
2021/09/16 00:00:59;;;;;;;23.13;13.52;;;16.00;80.90;;;;;;5038642;28;20025;-74
2021/09/16 00:03:25;;;;;;;23.13;13.23;;;16.00;80.10;;;;;;5039863;28;20060;-74
2021/09/16 00:05:51;;;;;;;24.40;15.00;;;16.00;80.00;;;;;;5038502;28;20026;-74
2021/09/16 00:08:17;;;;;;;28.25;16.20;;;16.00;80.00;;;;;;5039756;28;20399;-74
2021/09/16 00:10:43;;;;;;;24.17;14.77;;;15.90;81.20;;;;;;5039596;28;20016;-74
2021/09/16 00:13:09;;;;;;;26.40;15.70;;;15.90;80.40;;;;;;5030304;28;20495;-74
2021/09/16 00:15:35;;;;;;;29.30;17.17;;;16.00;80.50;;;;;;5035981;28;20402;-74
2021/09/16 00:18:01;;;;;;;26.40;14.45;;;16.00;81.40;;;;;;5039819;28;20065;-74
2021/09/16 00:20:27;;;;;;;24.70;14.23;;;16.00;80.30;;;;;;5035458;28;20549;-74
2021/09/16 00:22:53;;;;;;;26.13;16.98;;;16.00;80.10;;;;;;5039406;28;20087;-74
2021/09/16 00:25:19;;;;;;;27.10;15.35;;;16.00;80.90;;;;;;5039390;28;20435;-74
2021/09/16 00:27:45;;;;;;;23.02;14.55;;;16.00;80.90;;;;;;5039792;28;20025;-74
2021/09/16 00:30:12;;;;;;;26.88;15.50;;;16.00;81.20;;;;;;5039409;28;20018;-74
2021/09/16 00:32:38;;;;;;;29.40;17.08;;;16.00;81.80;;;;;;5039676;28;20068;-74
2021/09/16 00:35:05;;;;;;;27.60;15.70;;;16.00;81.50;;;;;;5039102;28;20049;-75
2021/09/16 00:37:31;;;;;;;28.13;16.00;;;16.00;81.40;;;;;;5039256;28;20025;-74
2021/09/16 00:39:57;;;;;;;25.17;15.57;;;16.10;80.90;;;;;;5039125;28;20432;-74
2021/09/16 00:42:23;;;;;;;29.13;17.58;;;16.00;80.80;;;;;;5039214;28;20144;-74
2021/09/16 00:44:49;;;;;;;28.02;17.48;;;16.00;81.70;;;;;;5039089;28;20026;-74
2021/09/16 00:47:16;;;;;;;27.67;17.40;;;16.10;82.10;;;;;;5036295;28;20024;-74
2021/09/16 00:49:45;;;;;;;29.23;16.75;;;16.10;81.90;;;;;;5038972;28;20404;-74
2021/09/16 00:52:13;;;;;;;27.52;16.63;;;16.10;82.30;;;;;;5039073;28;20097;-74
2021/09/16 00:54:44;;;;;;;28.15;16.88;;;16.10;81.30;;;;;;5038556;28;20026;-74
2021/09/16 00:57:12;;;;;;;30.15;19.02;;;16.10;82.30;;;;;;5039111;28;20427;-74
2021/09/16 00:59:38;;;;;;;26.55;16.85;;;16.10;81.70;;;;;;5038662;28;20426;-74
2021/09/16 01:02:05;;;;;;;30.67;18.08;;;16.10;81.20;;;;;;5038742;28;20022;-74
2021/09/16 01:04:31;;;;;;;31.75;18.48;;;16.10;81.60;;;;;;5038669;28;20022;-74
2021/09/16 01:06:58;;;;;;;29.05;17.15;;;16.10;81.40;;;;;;5038757;28;20037;-74
2021/09/16 01:09:27;;;;;;;28.75;15.95;;;16.10;81.90;;;;;;5025530;28;20014;-74
2021/09/16 01:11:54;;;;;;;31.67;17.45;;;16.10;82.10;;;;;;5038617;28;20029;-74
2021/09/16 01:14:24;;;;;;;30.25;18.40;;;16.10;81.90;;;;;;5025309;28;20022;-74
2021/09/16 01:16:51;;;;;;;39.00;21.70;;;16.10;82.00;;;;;;5038516;28;20383;-74
2021/09/16 01:19:18;;;;;;;30.55;17.67;;;16.10;82.70;;;;;;5038614;28;20026;-74
2021/09/16 01:21:43;;;;;;;29.77;16.98;;;16.10;82.10;;;;;;5034228;28;20041;-75
2021/09/16 01:24:09;;;;;;;31.60;17.70;;;16.10;81.60;;;;;;5038151;28;20029;-74
2021/09/16 01:26:35;;;;;;;30.63;17.30;;;16.10;81.70;;;;;;5038295;28;20025;-74
2021/09/16 01:29:01;;;;;;;32.55;20.50;;;16.10;81.40;;;;;;5038479;28;20064;-74
2021/09/16 01:31:38;;;;;;;31.08;18.50;;;16.10;82.60;;;;;;5038459;28;20025;-75
2021/09/16 01:34:09;;;;;;;30.38;17.98;;;16.10;82.20;;;;;;5026878;28;20049;-74
2021/09/16 01:36:36;;;;;;;32.28;19.77;;;16.10;82.20;;;;;;5038114;28;20041;-74
2021/09/16 01:39:04;;;;;;;34.97;20.27;;;16.10;82.40;;;;;;5038015;28;20044;-75
2021/09/16 01:41:30;;;;;;;32.03;19.38;;;16.10;82.60;;;;;;5037980;28;20108;-74
2021/09/16 01:43:56;;;;;;;33.45;19.25;;;16.10;82.80;;;;;;5038171;28;20057;-75
2021/09/16 01:46:22;;;;;;;32.53;18.90;;;16.10;82.30;;;;;;5035396;28;20029;-74
2021/09/16 01:48:48;;;;;;;32.03;18.00;;;16.10;82.50;;;;;;5038106;28;20085;-74
2021/09/16 01:51:14;;;;;;;33.05;20.27;;;16.10;82.90;;;;;;5037876;28;20022;-75
2021/09/16 01:53:41;;;;;;;31.73;19.10;;;16.00;82.80;;;;;;5037639;28;20028;-75
2021/09/16 01:56:06;;;;;;;32.00;18.48;;;16.00;82.70;;;;;;5037743;28;20033;-74
2021/09/16 01:58:32;;;;;;;31.65;18.23;;;15.90;81.90;;;;;;5037844;28;20069;-75
2021/09/16 02:00:58;;;;;;;32.15;18.02;;;15.90;81.80;;;;;;5037742;28;20108;-74
2021/09/16 02:03:24;;;;;;;35.63;20.67;;;15.90;81.40;;;;;;5037944;28;20033;-75
2021/09/16 02:05:50;;;;;;;35.25;20.02;;;15.90;82.10;;;;;;5037631;28;20381;-74
2021/09/16 02:08:16;;;;;;;35.53;21.08;;;15.90;82.30;;;;;;5036178;28;20102;-75
2021/09/16 02:10:42;;;;;;;36.03;21.58;;;15.90;82.90;;;;;;5037582;28;20028;-75
2021/09/16 02:13:07;;;;;;;27.90;18.13;;;15.80;83.30;;;;;;5027815;28;20523;-75
2021/09/16 02:15:33;;;;;;;35.63;20.48;;;15.80;81.70;;;;;;5033651;28;20025;-74
2021/09/16 02:17:59;;;;;;;35.22;19.83;;;15.70;82.60;;;;;;5037825;28;20112;-74
2021/09/16 02:20:25;;;;;;;40.30;22.55;;;15.70;83.60;;;;;;5033446;28;20029;-74
2021/09/16 02:22:51;;;;;;;40.65;22.27;;;15.70;84.00;;;;;;5037297;28;20037;-74
2021/09/16 02:25:17;;;;;;;39.35;20.90;;;15.70;84.00;;;;;;5037376;28;20032;-75
2021/09/16 02:27:42;;;;;;;40.00;21.75;;;15.70;84.00;;;;;;5037493;28;20029;-75
2021/09/16 02:30:09;;;;;;;41.72;23.20;;;15.70;84.30;;;;;;5036041;28;20037;-75
2021/09/16 02:32:35;;;;;;;38.28;19.90;;;15.70;84.70;;;;;;5037351;28;20026;-75
2021/09/16 02:35:01;;;;;;;43.38;24.55;;;15.70;84.10;;;;;;5037280;28;20041;-75
2021/09/16 02:37:27;;;;;;;37.28;22.42;;;15.60;85.00;;;;;;5035888;28;20025;-75
2021/09/16 02:39:53;;;;;;;38.53;20.67;;;15.70;85.00;;;;;;5037196;28;20064;-75
2021/09/16 02:42:19;;;;;;;37.78;21.85;;;15.70;84.70;;;;;;5037186;28;20022;-75
2021/09/16 02:44:45;;;;;;;40.30;22.50;;;15.70;85.10;;;;;;5037435;28;20026;-75
2021/09/16 02:47:10;;;;;;;37.30;21.75;;;15.70;85.40;;;;;;5034519;28;20026;-74
2021/09/16 02:49:36;;;;;;;36.30;20.95;;;15.70;84.90;;;;;;5037239;28;20021;-75
2021/09/16 02:52:02;;;;;;;39.75;21.23;;;15.70;84.20;;;;;;5037161;28;20048;-75
2021/09/16 02:54:28;;;;;;;39.45;22.05;;;15.80;84.80;;;;;;5036783;28;20144;-74
2021/09/16 02:56:54;;;;;;;44.13;24.55;;;15.80;84.90;;;;;;5037248;28;20485;-75
2021/09/16 02:59:19;;;;;;;46.72;25.13;;;15.80;84.50;;;;;;5035661;28;20373;-74
2021/09/16 03:01:45;;;;;;;45.25;25.10;;;15.80;85.00;;;;;;5037221;28;20052;-74
2021/09/16 03:04:11;;;;;;;41.47;22.60;;;15.90;85.40;;;;;;5036893;28;20032;-75
2021/09/16 03:06:37;;;;;;;47.80;25.73;;;15.90;84.70;;;;;;5037135;28;20021;-74
2021/09/16 03:09:03;;;;;;;46.58;26.23;;;15.90;85.30;;;;;;5036697;28;20017;-75
2021/09/16 03:11:29;;;;;;;46.90;25.42;;;15.90;85.60;;;;;;5037079;28;20028;-74
2021/09/16 03:13:55;;;;;;;43.97;24.85;;;15.90;85.30;;;;;;5023582;28;20105;-75
2021/09/16 03:16:21;;;;;;;48.95;26.95;;;15.90;85.00;;;;;;5037039;28;20099;-75
2021/09/16 03:18:46;;;;;;;40.83;22.35;;;16.00;85.60;;;;;;5036947;28;20022;-75
2021/09/16 03:21:12;;;;;;;42.13;23.92;;;16.00;85.00;;;;;;5032922;28;20558;-74
2021/09/16 03:23:38;;;;;;;42.72;24.33;;;16.00;84.90;;;;;;5036291;28;20115;-75
2021/09/16 03:26:04;;;;;;;41.92;24.63;;;16.00;84.50;;;;;;5040180;28;20053;-75
2021/09/16 03:28:30;;;;;;;38.28;21.73;;;16.00;84.70;;;;;;5040511;28;20010;-75
2021/09/16 03:30:56;;;;;;;43.15;23.55;;;16.00;84.20;;;;;;5040608;28;20025;-75
2021/09/16 03:33:21;;;;;;;40.72;23.63;;;16.00;84.20;;;;;;5040260;28;20030;-75
2021/09/16 03:35:47;;;;;;;46.63;23.15;;;16.00;84.60;;;;;;5039218;28;20630;-75
2021/09/16 03:38:13;;;;;;;44.28;25.08;;;16.00;84.30;;;;;;5040111;28;20108;-75
2021/09/16 03:40:39;;;;;;;38.92;22.85;;;16.00;84.70;;;;;;5040246;28;20029;-75
2021/09/16 03:43:06;;;;;;;42.00;23.10;;;16.00;83.90;;;;;;5040157;28;20029;-74
2021/09/16 03:45:32;;;;;;;35.03;21.02;;;16.00;83.70;;;;;;5039061;28;20026;-74
2021/09/16 03:47:58;;;;;;;33.00;19.55;;;16.00;83.00;;;;;;5037201;28;20064;-75
2021/09/16 03:50:24;;;;;;;36.78;20.70;;;16.00;83.10;;;;;;5040183;28;20032;-75
2021/09/16 03:52:50;;;;;;;32.40;18.85;;;16.00;82.50;;;;;;5038470;28;20021;-75
2021/09/16 03:55:16;;;;;;;43.55;24.63;;;16.00;82.00;;;;;;5039988;28;20055;-75
2021/09/16 03:57:42;;;;;;;41.03;22.98;;;16.00;83.20;;;;;;5036711;28;20488;-74
2021/09/16 04:00:09;;;;;;;50.80;26.95;;;16.00;84.10;;;;;;5038260;28;20095;-74
2021/09/16 04:02:35;;;;;;;41.22;22.42;;;16.00;84.20;;;;;;5039616;28;20545;-74
2021/09/16 04:05:02;;;;;;;36.65;20.45;;;16.00;83.00;;;;;;5039464;28;20057;-74
2021/09/16 04:07:28;;;;;;;41.42;22.30;;;16.00;82.70;;;;;;5039530;28;20495;-75
2021/09/16 04:09:53;;;;;;;42.45;24.98;;;16.00;83.20;;;;;;5038490;28;20029;-75
2021/09/16 04:12:19;;;;;;;42.22;24.02;;;16.00;84.20;;;;;;5039368;28;20036;-75
2021/09/16 04:14:45;;;;;;;45.53;25.70;;;16.00;84.70;;;;;;5038623;28;20056;-74
2021/09/16 04:17:11;;;;;;;49.90;26.65;;;16.00;84.50;;;;;;5039766;28;20022;-75
2021/09/16 04:19:36;;;;;;;43.95;25.80;;;16.00;84.50;;;;;;5039641;28;20064;-75
2021/09/16 04:22:03;;;;;;;47.70;25.25;;;16.00;84.80;;;;;;5035990;28;20018;-74
2021/09/16 04:24:29;;;;;;;48.45;28.40;;;16.00;85.60;;;;;;5039246;28;20041;-75
2021/09/16 04:26:55;;;;;;;49.08;28.23;;;15.90;85.60;;;;;;5039527;28;20468;-75
2021/09/16 04:29:20;;;;;;;43.17;24.60;;;15.90;85.80;;;;;;5039717;28;20036;-75
2021/09/16 04:31:47;;;;;;;48.25;26.55;;;15.90;85.00;;;;;;5039382;28;20022;-74
2021/09/16 04:34:12;;;;;;;44.85;26.92;;;15.90;85.30;;;;;;5038004;28;20053;-74
2021/09/16 04:36:38;;;;;;;44.08;24.52;;;15.90;85.60;;;;;;5038823;28;20100;-75
2021/09/16 04:39:06;;;;;;;40.65;23.92;;;15.80;84.10;;;;;;5039261;28;20076;-74
2021/09/16 04:41:32;;;;;;;44.55;24.83;;;15.90;84.30;;;;;;5039169;28;20057;-73
2021/09/16 04:43:58;;;;;;;49.17;27.48;;;15.80;84.00;;;;;;5038730;28;20033;-77
2021/09/16 04:46:24;;;;;;;46.80;26.20;;;15.80;84.40;;;;;;5034314;28;20026;-78
2021/09/16 04:48:50;;;;;;;41.60;24.35;;;15.80;84.40;;;;;;5037756;28;20037;-78
2021/09/16 04:51:16;;;;;;;43.80;23.77;;;15.80;84.00;;;;;;5038899;28;20068;-74
2021/09/16 04:53:42;;;;;;;42.67;23.10;;;15.80;83.60;;;;;;5037429;28;20037;-74
2021/09/16 04:56:07;;;;;;;39.85;22.48;;;15.80;83.60;;;;;;5039113;28;20021;-72
2021/09/16 04:58:33;;;;;;;49.88;28.33;;;15.80;83.00;;;;;;5038993;28;20104;-72
2021/09/16 05:00:59;;;;;;;47.58;27.00;;;15.80;84.00;;;;;;5038766;28;20079;-72
2021/09/16 05:03:25;;;;;;;53.33;31.00;;;15.80;84.20;;;;;;5038993;28;20029;-71
2021/09/16 05:05:51;;;;;;;50.03;26.45;;;15.70;85.40;;;;;;5037349;28;20021;-73
2021/09/16 05:08:16;;;;;;;45.97;27.23;;;15.70;85.20;;;;;;5037303;28;20037;-75
2021/09/16 05:10:43;;;;;;;54.92;31.65;;;15.60;84.70;;;;;;5038633;28;20056;-76
2021/09/16 05:13:09;;;;;;;48.70;26.65;;;15.60;85.60;;;;;;5038707;28;20069;-78
2021/09/16 05:15:35;;;;;;;43.95;24.88;;;15.60;84.40;;;;;;5037129;28;20444;-77
2021/09/16 05:18:01;;;;;;;45.00;26.98;;;15.50;83.90;;;;;;5038735;28;20109;-83
2021/09/16 05:20:27;;;;;;;41.75;24.25;;;15.50;83.90;;;;;;5033317;28;20388;-80
2021/09/16 05:22:52;;;;;;;55.25;30.38;;;15.40;83.70;;;;;;5038386;28;20026;-80
2021/09/16 05:25:18;;;;;;;62.70;32.13;;;15.40;85.50;;;;;;5038118;28;20029;-79
2021/09/16 05:27:44;;;;;;;59.67;30.27;;;15.40;85.80;;;;;;5038676;28;20104;-76
2021/09/16 05:30:11;;;;;;;64.82;34.83;;;15.40;86.70;;;;;;5038191;28;20017;-76
2021/09/16 05:32:38;;;;;;;56.55;29.65;;;15.50;87.50;;;;;;5038299;28;20026;-76
2021/09/16 05:35:07;;;;;;;63.70;32.55;;;15.50;86.70;;;;;;5038060;28;20076;-75
2021/09/16 05:37:33;;;;;;;62.05;33.38;;;15.50;87.00;;;;;;5038101;28;20029;-76
2021/09/16 05:39:59;;;;;;;74.18;37.20;;;15.60;86.80;;;;;;5037892;28;20022;-75
2021/09/16 05:42:26;;;;;;;54.45;30.20;;;15.60;87.10;;;;;;5038070;28;20029;-76
2021/09/16 05:44:53;;;;;;;58.30;31.00;;;15.60;86.00;;;;;;5025079;28;20014;-76
2021/09/16 05:47:19;;;;;;;60.65;32.50;;;15.60;85.70;;;;;;5031268;28;20537;-75
2021/09/16 05:49:45;;;;;;;52.78;28.48;;;15.60;85.40;;;;;;5038011;28;20071;-75
2021/09/16 05:52:11;;;;;;;50.22;27.38;;;15.60;85.00;;;;;;5037743;28;20017;-76
2021/09/16 05:54:37;;;;;;;51.30;28.48;;;15.60;84.50;;;;;;5037747;28;20409;-75
2021/09/16 05:57:04;;;;;;;55.15;30.75;;;15.60;84.10;;;;;;5038001;28;20021;-75
2021/09/16 05:59:30;;;;;;;54.13;28.95;;;15.70;84.80;;;;;;5038021;28;20041;-74
2021/09/16 06:01:57;;;;;;;56.05;31.58;;;15.70;84.80;;;;;;5036422;28;20030;-75
2021/09/16 06:04:23;;;;;;;50.70;27.55;;;15.70;85.60;;;;;;5037712;28;20033;-74
2021/09/16 06:06:49;;;;;;;48.00;26.83;;;15.70;85.00;;;;;;5037852;28;20079;-75
2021/09/16 06:09:15;;;;;;;58.97;30.45;;;15.70;84.30;;;;;;5037493;28;20025;-74
2021/09/16 06:11:40;;;;;;;53.55;29.50;;;15.70;84.50;;;;;;5037253;28;20018;-75
2021/09/16 06:14:06;;;;;;;46.75;25.90;;;15.80;84.10;;;;;;5037552;28;20472;-75
2021/09/16 06:16:32;;;;;;;54.83;30.08;;;15.80;83.50;;;;;;5037863;28;20392;-74
2021/09/16 06:18:58;;;;;;;49.35;28.05;;;15.80;84.60;;;;;;5037648;28;20029;-74
2021/09/16 06:21:24;;;;;;;49.28;27.92;;;15.80;84.30;;;;;;5030610;28;20439;-75
2021/09/16 06:23:49;;;;;;;46.80;25.73;;;15.80;84.30;;;;;;5037150;28;20068;-74
2021/09/16 06:26:15;;;;;;;43.50;24.33;;;15.80;83.60;;;;;;5037643;28;20484;-75
2021/09/16 06:28:41;;;;;;;45.00;25.08;;;15.80;83.40;;;;;;5037457;28;20021;-75
2021/09/16 06:31:07;;;;;;;37.80;22.77;;;15.80;83.10;;;;;;5037427;28;20025;-75
2021/09/16 06:33:32;;;;;;;36.28;21.60;;;15.80;82.90;;;;;;5037056;28;20053;-74
2021/09/16 06:35:58;;;;;;;37.38;22.20;;;15.90;82.80;;;;;;5037598;28;20163;-75
2021/09/16 06:38:24;;;;;;;38.08;23.25;;;15.90;83.20;;;;;;5036966;28;20028;-75
2021/09/16 06:40:50;;;;;;;37.70;22.55;;;15.90;83.00;;;;;;5037510;28;20143;-75
2021/09/16 06:43:15;;;;;;;38.05;22.45;;;15.90;83.10;;;;;;5037314;28;20043;-75
2021/09/16 06:45:41;;;;;;;51.47;29.20;;;15.90;83.00;;;;;;5023801;28;20108;-75
2021/09/16 06:48:07;;;;;;;46.15;26.83;;;16.00;84.00;;;;;;5037316;28;20025;-75
2021/09/16 06:50:33;;;;;;;52.42;29.40;;;16.00;84.40;;;;;;5037188;28;20022;-75
2021/09/16 06:52:59;;;;;;;44.33;24.70;;;16.00;85.10;;;;;;5037223;28;20029;-75
2021/09/16 06:55:25;;;;;;;43.20;24.90;;;16.00;84.10;;;;;;5024128;28;20468;-75
2021/09/16 06:57:51;;;;;;;42.78;25.20;;;16.00;84.10;;;;;;5037299;28;20036;-74
2021/09/16 07:00:17;;;;;;;42.28;23.73;;;16.00;84.20;;;;;;5040930;28;20033;-75
2021/09/16 07:02:49;;;;;;;40.97;24.73;;;16.00;83.70;;;;;;5041007;28;20060;-75
2021/09/16 07:05:14;;;;;;;46.83;24.58;;;16.10;83.60;;;;;;5041322;28;20021;-75
2021/09/16 07:07:40;;;;;;;42.67;24.40;;;16.10;83.30;;;;;;5039482;28;20113;-75
2021/09/16 07:10:07;;;;;;;35.65;22.52;;;16.10;83.30;;;;;;5041029;28;20109;-75
2021/09/16 07:12:32;;;;;;;39.60;22.75;;;16.20;83.20;;;;;;5040910;28;20037;-75
2021/09/16 07:14:58;;;;;;;36.55;21.63;;;16.30;83.50;;;;;;5040975;28;20021;-75
2021/09/16 07:17:25;;;;;;;36.47;21.92;;;16.30;83.10;;;;;;5040745;28;20029;-75
2021/09/16 07:19:50;;;;;;;31.10;19.83;;;16.30;82.90;;;;;;5038908;28;20025;-75
2021/09/16 07:22:17;;;;;;;39.53;23.80;;;16.30;82.70;;;;;;5035750;28;20040;-75
2021/09/16 07:24:43;;;;;;;35.63;20.83;;;16.40;83.10;;;;;;5040664;28;20033;-75
2021/09/16 07:27:09;;;;;;;31.67;20.35;;;16.40;82.80;;;;;;5040710;28;20029;-75
2021/09/16 07:29:35;;;;;;;31.00;19.77;;;16.40;82.60;;;;;;5040829;28;20021;-75
2021/09/16 07:32:01;;;;;;;34.88;20.17;;;16.40;82.70;;;;;;5040500;28;20446;-75
2021/09/16 07:34:26;;;;;;;35.90;21.73;;;16.50;82.70;;;;;;5040476;28;20057;-75
2021/09/16 07:36:52;;;;;;;36.83;21.92;;;16.60;83.00;;;;;;5040373;28;20034;-75
2021/09/16 07:39:20;;;;;;;38.20;21.65;;;16.60;82.80;;;;;;5040266;28;20108;-75
2021/09/16 07:41:49;;;;;;;32.25;21.10;;;16.70;82.60;;;;;;5040261;28;20057;-75
2021/09/16 07:44:18;;;;;;;39.47;23.73;;;16.80;82.60;;;;;;5032206;28;20018;-75
2021/09/16 07:46:44;;;;;;;43.13;26.40;;;16.90;83.10;;;;;;5035497;28;20080;-75
2021/09/16 07:49:10;;;;;;;34.08;22.27;;;17.00;83.70;;;;;;5040349;28;20464;-75
2021/09/16 07:51:36;;;;;;;38.00;24.25;;;17.00;82.80;;;;;;5040089;28;20029;-75
2021/09/16 07:54:02;;;;;;;39.65;24.40;;;17.00;83.30;;;;;;5039803;28;20404;-75
2021/09/16 07:56:29;;;;;;;38.17;23.08;;;17.10;82.70;;;;;;5040098;28;20034;-75
2021/09/16 07:58:55;;;;;;;36.50;22.40;;;17.10;82.70;;;;;;5040080;28;20013;-75
2021/09/16 08:01:20;;;;;;;32.38;21.05;;;17.10;82.80;;;;;;5040001;28;20165;-75
2021/09/16 08:03:47;;;;;;;30.73;19.90;;;17.10;82.40;;;;;;5039972;28;20026;-75
2021/09/16 08:06:13;;;;;;;32.70;21.08;;;17.20;82.30;;;;;;5039864;28;20060;-75
2021/09/16 08:08:40;;;;;;;28.13;18.77;;;17.20;82.40;;;;;;5039669;28;20022;-75
2021/09/16 08:11:06;;;;;;;28.33;19.17;;;17.30;82.10;;;;;;5038932;28;20025;-75
2021/09/16 08:13:31;;;;;;;31.00;20.40;;;17.40;82.00;;;;;;5039774;28;20496;-75
2021/09/16 08:15:58;;;;;;;35.38;22.42;;;17.40;82.10;;;;;;5039644;28;20025;-75
2021/09/16 08:18:24;;;;;;;31.40;21.50;;;17.60;82.10;;;;;;5039847;28;20396;-75
2021/09/16 08:20:50;;;;;;;32.15;21.67;;;17.60;81.80;;;;;;5032244;28;20029;-75
2021/09/16 08:23:20;;;;;;;35.50;22.35;;;17.60;81.80;;;;;;5039179;28;20458;-75
2021/09/16 08:25:47;;;;;;;34.67;23.33;;;17.60;81.80;;;;;;5039252;28;20032;-75
2021/09/16 08:28:14;;;;;;;29.35;19.25;;;17.50;81.50;;;;;;5039601;28;20404;-75
2021/09/16 08:30:40;;;;;;;33.83;23.65;;;17.50;81.40;;;;;;5039384;28;20025;-75
2021/09/16 08:33:07;;;;;;;28.58;20.20;;;17.60;81.60;;;;;;5039406;28;20044;-75
2021/09/16 08:35:33;;;;;;;29.33;19.77;;;17.60;81.40;;;;;;5039148;28;20470;-75
2021/09/16 08:37:59;;;;;;;28.60;19.60;;;17.60;81.20;;;;;;5039619;28;20151;-75
2021/09/16 08:40:25;;;;;;;26.15;18.35;;;17.60;81.20;;;;;;5039064;28;20057;-75
2021/09/16 08:42:52;;;;;;;23.88;15.82;;;17.60;81.00;;;;;;5039220;28;20068;-75
2021/09/16 08:45:20;;;;;;;25.00;17.58;;;17.70;81.00;;;;;;5025607;28;20014;-75
2021/09/16 08:47:48;;;;;;;23.75;17.10;;;17.70;81.10;;;;;;5039157;28;20041;-75
2021/09/16 08:50:16;;;;;;;24.75;17.05;;;17.80;81.00;;;;;;5039042;28;20027;-75
2021/09/16 08:52:43;;;;;;;27.98;18.85;;;17.80;81.10;;;;;;5037482;28;20022;-75
2021/09/16 08:55:11;;;;;;;23.63;17.15;;;17.90;80.90;;;;;;5038416;28;20446;-75
2021/09/16 08:57:39;;;;;;;25.35;18.20;;;18.00;80.90;;;;;;5039026;28;20476;-74
2021/09/16 09:00:12;;;;;;;22.33;16.50;;;18.10;80.60;;;;;;5028585;28;20098;-75
2021/09/16 09:02:38;;;;;;;24.95;16.75;;;18.20;80.60;;;;;;5031110;28;20014;-75
2021/09/16 09:05:07;;;;;;;23.75;16.98;;;18.20;80.30;;;;;;5038353;28;20030;-75
2021/09/16 09:07:40;;;;;;;26.67;16.50;;;18.30;80.20;;;;;;5037714;28;20021;-75
2021/09/16 09:10:11;;;;;;;25.13;16.67;;;18.40;80.20;;;;;;5038554;28;20025;-76
2021/09/16 09:12:38;;;;;;;22.38;15.15;;;18.40;80.00;;;;;;5037224;28;20045;-75
2021/09/16 09:15:07;;;;;;;22.35;15.73;;;18.50;79.90;;;;;;5035094;28;20032;-75
2021/09/16 09:17:34;;;;;;;19.25;13.85;;;18.50;79.80;;;;;;5034267;28;20018;-76
2021/09/16 09:20:08;;;;;;;18.50;14.00;;;18.60;79.80;;;;;;5033937;28;20029;-76
2021/09/16 09:22:39;;;;;;;20.75;14.05;;;18.60;79.70;;;;;;5035161;28;20029;-75
2021/09/16 09:25:13;;;;;;;19.08;13.55;;;18.60;79.70;;;;;;5038449;28;20026;-76
2021/09/16 09:27:46;;;;;;;18.77;13.88;;;18.70;79.80;;;;;;5038136;28;20037;-76
2021/09/16 09:30:29;;;;;;;19.92;14.27;;;18.80;79.70;;;;;;5037962;28;20100;-76
2021/09/16 09:33:02;;;;;;;17.90;13.20;;;18.80;79.30;;;;;;5037880;28;20022;-76
2021/09/16 09:35:27;;;;;;;;;;;18.80;79.20;;;;;;5038173;28;20045;-76
2021/09/16 09:37:54;;;;;;;18.65;12.90;;;18.80;79.10;;;;;;5038123;28;19959;-75
2021/09/16 09:40:37;;;;;;;19.50;14.18;;;18.80;79.10;;;;;;5037609;28;20033;-76
2021/09/16 09:43:35;;;;;;;18.05;13.35;;;18.80;78.90;;;;;;5038075;28;20461;-76
2021/09/16 09:46:13;;;;;;;20.83;15.43;;;18.90;79.10;;;;;;5027380;28;20044;-76
2021/09/16 09:49:00;;;;;;;20.48;12.98;;;18.90;79.10;;;;;;5037712;28;20021;-75
2021/09/16 09:51:50;;;;;;;21.95;15.45;;;19.10;79.20;;;;;;5038129;28;20058;-76
2021/09/16 09:54:27;;;;;;;18.25;12.63;;;19.20;78.80;;;;;;5037611;28;20025;-76
2021/09/16 09:57:04;;;;;;;19.02;13.85;;;19.30;78.60;;;;;;5037923;28;20022;-76
2021/09/16 09:59:48;;;;;;;19.33;14.07;;;19.50;78.40;;;;;;5037668;28;20021;-76
2021/09/16 10:02:15;;;;;;;16.88;12.90;;;20.00;79.50;;;;;;5037654;28;20022;-76
2021/09/16 10:04:42;;;;;;;15.80;11.73;;;20.80;79.80;;;;;;5036073;28;20021;-75
2021/09/16 10:07:08;;;;;;;13.75;10.82;;;21.60;79.20;;;;;;5033937;28;20116;-76
2021/09/16 10:09:34;;;;;;;15.82;10.65;;;22.40;78.60;;;;;;5037300;28;20025;-76
2021/09/16 10:12:00;;;;;;;13.52;10.95;;;23.00;77.30;;;;;;5037463;28;20028;-76
2021/09/16 10:14:26;;;;;;;16.77;11.60;;;23.30;75.70;;;;;;5035844;28;20033;-76
2021/09/16 10:16:53;;;;;;;16.50;11.32;;;23.30;74.80;;;;;;5037512;28;20104;-74
2021/09/16 10:19:19;;;;;;;11.55;8.27;;;23.60;74.60;;;;;;5037287;28;20033;-77
2021/09/16 10:21:45;;;;;;;12.45;9.50;;;24.20;74.60;;;;;;5030675;28;20032;-77
2021/09/16 10:24:17;;;;;;;13.63;9.55;;;24.80;74.00;;;;;;5035369;28;20906;-77
2021/09/16 10:26:49;;;;;;;11.15;8.05;;;25.60;72.90;;;;;;5037303;28;20022;-76
2021/09/16 10:29:27;;;;;;;12.73;9.73;;;26.20;70.80;;;;;;5036937;28;20061;-76
2021/09/16 10:32:13;;;;;;;11.07;8.68;;;26.80;69.50;;;;;;5037269;28;20018;-76
2021/09/16 10:34:46;;;;;;;11.80;8.85;;;27.00;69.00;;;;;;5036449;28;20049;-76
2021/09/16 10:37:17;;;;;;;10.10;6.85;;;27.20;68.00;;;;;;5036874;28;20029;-76
2021/09/16 10:39:44;;;;;;;9.88;7.28;;;27.30;68.20;;;;;;5037137;28;20032;-77
2021/09/16 10:42:11;;;;;;;10.38;7.22;;;27.60;68.10;;;;;;5036979;28;20366;-76
2021/09/16 10:44:38;;;;;;;9.05;7.55;;;27.80;67.30;;;;;;5036722;28;20030;-76
2021/09/16 10:47:23;;;;;;;9.35;7.72;;;27.90;67.20;;;;;;5036849;28;20021;-78
2021/09/16 10:49:51;;;;;;;10.27;7.97;;;28.00;64.80;;;;;;5036901;28;20419;-78
2021/09/16 10:52:23;;;;;;;8.75;7.40;;;27.90;63.40;;;;;;5037064;28;20017;-78
2021/09/16 10:54:57;;;;;;;10.45;7.13;;;27.80;62.40;;;;;;5036928;28;20033;-78
2021/09/16 10:57:29;;;;;;;10.23;6.47;;;27.80;62.80;;;;;;5037176;28;20163;-77
2021/09/16 10:59:55;;;;;;;9.02;7.00;;;27.60;62.30;;;;;;5036780;28;20025;-78
2021/09/16 11:02:48;;;;;;;8.30;6.50;;;27.80;62.60;;;;;;5037178;28;20033;-77
2021/09/16 11:05:15;;;;;;;9.57;6.35;;;28.10;62.80;;;;;;5036283;28;20492;-77
2021/09/16 11:07:42;;;;;;;7.90;6.55;;;28.40;62.10;;;;;;5033629;28;20025;-77
2021/09/16 11:10:17;;;;;;;9.10;6.28;;;28.60;62.00;;;;;;5036919;28;20017;-78
2021/09/16 11:12:54;;;;;;;8.55;6.00;;;28.70;61.90;;;;;;5036584;28;20117;-77
2021/09/16 11:15:23;;;;;;;9.60;6.30;;;28.70;60.70;;;;;;5036694;28;20388;-78
2021/09/16 11:17:49;;;;;;;9.02;6.93;;;28.50;60.00;;;;;;5036684;28;20029;-77
2021/09/16 11:20:15;;;;;;;7.88;6.03;;;28.20;59.20;;;;;;5031493;28;20010;-77
2021/09/16 11:22:41;;;;;;;8.85;6.05;;;27.80;58.90;;;;;;5035374;28;20049;-78
2021/09/16 11:25:09;;;;;;;10.90;6.90;;;27.40;59.00;;;;;;5036764;28;20021;-78
2021/09/16 11:27:39;;;;;;;9.60;7.30;;;27.00;59.30;;;;;;5036707;28;20036;-78
2021/09/16 11:30:17;;;;;;;8.70;6.85;;;26.70;59.50;;;;;;5036576;28;20032;-77
2021/09/16 11:32:44;;;;;;;9.15;7.00;;;26.40;59.40;;;;;;5036538;28;20017;-76
2021/09/16 11:35:17;;;;;;;7.10;5.78;;;26.20;60.00;;;;;;5036289;28;20125;-76
2021/09/16 11:37:49;;;;;;;10.68;6.68;;;26.20;60.80;;;;;;5036524;28;20101;-76
2021/09/16 11:40:24;;;;;;;8.80;6.68;;;26.40;60.90;;;;;;5036588;28;20029;-76
2021/09/16 11:42:56;;;;;;;9.25;6.35;;;26.50;61.00;;;;;;5035248;28;20025;-77
2021/09/16 11:45:26;;;;;;;8.88;6.63;;;26.90;61.30;;;;;;5024480;28;20029;-76
2021/09/16 11:48:25;;;;;;;9.55;6.93;;;27.40;62.10;;;;;;5033444;28;20037;-76
2021/09/16 11:51:02;;;;;;;7.55;5.43;;;27.90;60.50;;;;;;5028029;28;20100;-77
2021/09/16 11:53:34;;;;;;;9.70;7.10;;;28.10;59.50;;;;;;5039306;28;20036;-77
2021/09/16 11:56:05;;;;;;;8.15;6.15;;;28.00;56.60;;;;;;5039848;28;20025;-78
2021/09/16 11:58:39;;;;;;;8.35;5.35;;;27.90;56.70;;;;;;5052346;28;20108;-79
2021/09/16 12:01:07;;;;;;;6.88;5.47;;;27.60;58.20;;;;;;5039892;28;20396;-77
2021/09/16 12:03:41;;;;;;;9.65;6.55;;;27.30;58.50;;;;;;5039674;28;20018;-77
2021/09/16 12:06:13;;;;;;;8.00;5.50;;;27.30;58.50;;;;;;5036229;28;20431;-79
2021/09/16 12:08:50;;;;;;;7.88;5.53;;;27.50;57.90;;;;;;5039513;28;20021;-79
2021/09/16 12:11:24;;;;;;;9.77;6.25;;;27.70;56.50;;;;;;5039580;28;20022;-78
2021/09/16 12:14:01;;;;;;;6.70;5.07;;;27.90;54.60;;;;;;5039263;28;20056;-78
2021/09/16 12:16:31;;;;;;;6.72;4.97;;;28.20;56.80;;;;;;5037911;28;20032;-79
2021/09/16 12:19:07;;;;;;;7.65;5.72;;;28.40;57.70;;;;;;5038150;28;20048;-78
2021/09/16 12:21:35;;;;;;;6.47;5.28;;;28.60;58.00;;;;;;5033252;28;20025;-78
2021/09/16 12:24:14;;;;;;;7.90;4.95;;;28.90;56.60;;;;;;5038620;28;20029;-78
2021/09/16 12:26:58;;;;;;;6.38;4.72;;;29.00;54.60;;;;;;5038143;28;20049;-79
2021/09/16 12:29:34;;;;;;;8.40;5.38;;;29.10;56.20;;;;;;5037979;28;20158;-79
2021/09/16 12:32:03;;;;;;;9.25;4.80;;;28.90;55.30;;;;;;5039002;28;20483;-79
2021/09/16 12:34:31;;;;;;;6.20;4.53;;;28.60;55.90;;;;;;5039049;28;20057;-79